createdAt,value
2019-02-25T11:15:31.398Z,11.65
2019-02-25T11:20:27.282Z,10.13
2019-02-25T11:25:24.082Z,10.23
2019-02-25T11:30:21.511Z,11.10
2019-02-25T11:35:22.238Z,10.43
2019-02-25T11:40:23.060Z,9.63
2019-02-25T11:45:18.820Z,8.77
2019-02-25T11:50:14.199Z,7.77
2019-02-25T11:55:09.546Z,9.30
2019-02-25T12:00:08.162Z,7.60
2019-02-25T12:05:05.725Z,3.03
2019-02-25T12:10:00.864Z,2.37
2019-02-25T12:14:56.780Z,2.60
2019-02-25T12:19:52.024Z,3.20
2019-02-25T12:24:47.572Z,2.10
2019-02-25T12:29:44.426Z,2.57
2019-02-25T12:34:39.731Z,2.43
2019-02-25T12:39:35.383Z,2.50
2019-02-25T12:44:33.405Z,2.90
2019-02-25T12:49:28.350Z,3.47
2019-02-25T12:54:23.263Z,3.13
2019-02-25T12:59:18.215Z,3.53
2019-02-25T13:04:13.158Z,3.60
2019-02-25T13:09:13.428Z,3.43
2019-02-25T13:14:08.543Z,2.50
2019-02-25T13:19:03.756Z,3.23
2019-02-25T13:24:01.912Z,5.03
2019-02-25T13:28:56.335Z,4.57
2019-02-25T13:33:54.275Z,3.80
2019-02-25T13:38:49.144Z,4.40
2019-02-25T13:43:45.594Z,4.40
2019-02-25T13:48:41.477Z,4.60
2019-02-25T13:53:41.884Z,4.93
2019-02-25T13:58:36.799Z,4.87
2019-02-25T14:03:32.088Z,5.00
2019-02-25T14:08:27.010Z,5.10
2019-02-25T14:13:21.946Z,4.67
2019-02-25T14:18:18.227Z,6.27
2019-02-25T14:23:16.267Z,4.20
2019-02-25T14:28:11.291Z,4.57
2019-02-25T14:33:07.990Z,4.33
2019-02-25T14:38:07.707Z,4.77
2019-02-25T14:43:03.258Z,3.93
2019-02-25T14:47:59.652Z,4.53
2019-02-25T14:52:53.646Z,4.47
2019-02-25T14:57:48.892Z,3.90
2019-02-25T15:02:45.890Z,4.10
2019-02-25T15:07:42.472Z,3.70
2019-02-25T15:12:38.357Z,3.93
2019-02-25T15:17:34.286Z,3.90
2019-02-25T15:22:30.158Z,4.07
2019-02-25T15:27:25.959Z,3.80
2019-02-25T15:32:21.006Z,2.93
2019-02-25T15:37:16.081Z,3.50
2019-02-25T15:42:11.170Z,2.60
2019-02-25T15:47:10.748Z,2.60
2019-02-25T15:52:06.007Z,2.60
2019-02-25T15:57:04.197Z,2.40
2019-02-25T16:01:59.130Z,2.53
2019-02-25T16:06:57.612Z,2.70
2019-02-25T16:11:52.561Z,3.37
2019-02-25T16:16:53.290Z,2.60
2019-02-25T16:21:48.448Z,2.73
2019-02-25T16:26:43.232Z,2.73
2019-02-25T16:31:39.003Z,2.80
2019-02-25T16:36:33.794Z,2.97
2019-02-25T16:41:34.333Z,3.00
2019-02-25T16:46:34.443Z,3.03
2019-02-25T16:51:30.222Z,3.50
2019-02-25T16:56:25.960Z,3.57
2019-02-25T17:01:20.939Z,3.23
2019-02-25T17:06:15.830Z,4.20
2019-02-25T17:11:17.487Z,3.90
2019-02-25T17:16:18.077Z,4.20
2019-02-25T17:21:12.509Z,4.30
2019-02-25T17:26:10.593Z,4.40
2019-02-25T17:31:07.063Z,4.27
2019-02-25T17:36:05.737Z,4.67
2019-02-25T17:41:01.292Z,4.90
2019-02-25T17:46:00.355Z,5.97
2019-02-25T17:51:03.911Z,6.10
2019-02-25T17:55:59.863Z,7.37
2019-02-25T18:00:56.571Z,7.10
2019-02-25T18:05:51.307Z,7.43
2019-02-25T18:10:47.559Z,7.10
